• Join FlightAware (Why Join?)
  • Login
  • US Flag 
02:12PM EDT


 

Airport Tracker/Info


-or-


 

Live Flight TrackerFlight Track Log ✈ AAL1012 ✈ 12-Apr-2013 ✈ KMIA - KPHL

Flight Track Log - Related Links

Times and Time Zones

All times are in EDT time to prevent confusion due to time zone crossing. See the AAL1012 flight status page for this flight to view local times or setup timezone preferences in your user account.

Time Position Orientation Groundspeed Altitude Reporting Facility
EDT Latitude Longitude Course Direction KTS MPH feet Rate Location/Type
05:49PM 25.8030 -80.2620 73° East 181 208 1,200  Level FlightAware
05:50PM 25.8080 -80.2330 79° East 209 241 2,200 1,620 Climbing FlightAware
05:50PM 25.8120 -80.2040 81° East 245 282 2,700 1,740 Climbing FlightAware
05:51PM 25.8220 -80.1660 74° East 275 316 3,800 2,520 Climbing FlightAware
05:51PM 25.8380 -80.1530 36° Northeast 279 321 4,600 2,880 Climbing FlightAware
05:51PM 25.8500 -80.1490 17° North 283 326 5,000 2,520 Climbing FlightAware
05:52PM 25.8970 -80.1610 347° North 289 333 6,500 2,280 Climbing FlightAware
05:52PM 25.9140 -80.1720 330° Northwest 290 334 6,900 1,200 Climbing FlightAware
05:53PM 25.9480 -80.1940 330° Northwest 295 339 7,400 2,040 Climbing FlightAware
05:53PM 25.9800 -80.2130 332° Northwest 294 338 8,800 2,940 Climbing FlightAware
05:54PM 26.0230 -80.2460 325° Northwest 300 345 10,600 2,280 Climbing FlightAware
05:54PM 26.0490 -80.2710 319° Northwest 316 364 11,300 1,980 Climbing FlightAware
05:55PM 26.1070 -80.3220 322° Northwest 345 397 13,100 2,520 Climbing FlightAware
05:56PM 26.1630 -80.3700 322° Northwest 350 403 15,100 2,520 Climbing FlightAware
05:56PM 26.2260 -80.4250 322° Northwest 356 410 16,900 1,620 Climbing FlightAware
05:57PM 26.2970 -80.4620 335° Northwest 366 421 17,800 2,100 Climbing FlightAware
05:58PM 26.3650 -80.4940 337° Northwest 367 422 20,100 1,440 Climbing FlightAware
05:59PM 26.4390 -80.5310 336° Northwest 367 422 20,100 1,980 Level FlightAware
05:59PM 26.5300 -80.5720 338° Northwest 400 460 23,300 3,180 Climbing FlightAware
06:00PM 26.5990 -80.6050 337° Northwest 400 460 24,400 1,200 Climbing FlightAware
06:01PM 26.6770 -80.6420 337° Northwest 419 482 25,000 360 Climbing FlightAware
06:02PM 26.7520 -80.6770 337° Northwest 418 481 25,000  Level FlightAware
06:02PM 26.8280 -80.7130 337° Northwest 418 481 25,000  Level FlightAware
06:03PM 26.9110 -80.7380 345° North 419 482 25,000  Level FlightAware
06:04PM 26.9820 -80.7720 337° Northwest 419 482 25,000 60 Level FlightAware
06:05PM 27.0910 -80.7820 355° North 423 487 25,100 60 Climbing FlightAware
06:05PM 27.1660 -80.8000 348° North 423 487 25,100 1,380 Level FlightAware
06:06PM 27.2590 -80.8190 350° North 440 506 27,100 2,220 Climbing FlightAware
06:07PM 27.3440 -80.8380 349° North 442 509 28,300 1,500 Climbing FlightAware
06:07PM 27.4280 -80.8560 349° North 444 511 29,300 1,380 Climbing FlightAware
06:08PM 27.5040 -80.8730 349° North 446 513 30,200 1,500 Climbing FlightAware
06:09PM 27.6620 -80.9080 349° North 440 506 32,300 1,140 Climbing FlightAware
06:10PM 27.7740 -80.9320 349° North 444 511 32,800 300 Climbing FlightAware
06:11PM 27.8420 -80.9470 349° North 444 511 32,800  Level FlightAware
06:12PM 27.9110 -80.9620 349° North 444 511 32,800 1,140 Level FlightAware
06:13PM 28.1030 -81.0040 349° North 451 519 35,000 1,020 Climbing FlightAware
06:14PM 28.1970 -81.0250 349° North 451 519 35,000  Level FlightAware
06:14PM 28.2940 -81.0460 349° North 448 516 35,000  Level FlightAware
06:15PM 28.3830 -81.0660 349° North 447 514 35,000  Level FlightAware
06:16PM 28.4690 -81.0860 348° North 446 513 35,000  Level FlightAware
06:17PM 28.5590 -81.1060 349° North 444 511 35,000  Level FlightAware
06:17PM 28.6340 -81.1220 349° North 444 511 35,000  Level FlightAware
06:18PM 28.7090 -81.1390 349° North 443 510 35,000  Level FlightAware
06:19PM 28.7910 -81.1590 348° North 443 510 35,000  Level FlightAware
06:19PM 28.8590 -81.1760 348° North 443 510 35,000  Level FlightAware
06:20PM 28.9440 -81.1960 348° North 443 510 35,000  Level FlightAware
06:21PM 28.9950 -81.2090 347° North 443 510 35,000  Level FlightAware
06:21PM 29.0640 -81.2250 349° North 443 510 35,000  Level FlightAware
06:22PM 29.1490 -81.2460 348° North 443 510 35,000  Level FlightAware
06:23PM 29.2170 -81.2630 348° North 443 510 35,000  Level FlightAware
06:23PM 29.2850 -81.2790 348° North 443 510 35,000  Level FlightAware
06:24PM 29.3530 -81.2960 348° North 443 510 35,000  Level FlightAware
06:25PM 29.4210 -81.3130 348° North 443 510 35,000  Level FlightAware
06:26PM 29.5070 -81.3330 349° North 443 510 35,000  Level FlightAware
06:26PM 29.5750 -81.3500 348° North 443 510 35,000  Level FlightAware
06:27PM 29.6430 -81.3670 348° North 443 510 35,000  Level FlightAware
06:28PM 29.7110 -81.3830 348° North 443 510 35,000 -1,860 Level FlightAware
06:28PM 29.9390 -81.5700 325° Northwest 452 520 32,400 -2,100 Descending FlightAware
06:29PM 30.0090 -81.5990 340° North 453 521 32,100 -240 Descending FlightAware
06:30PM 30.0760 -81.6270 340° North 453 521 32,100  Level FlightAware
06:30PM 30.1260 -81.6480 340° North 453 521 32,100  Level FlightAware
06:31PM 30.1930 -81.6770 339° North 453 521 32,100  Level FlightAware
06:32PM 30.2600 -81.7050 340° North 453 521 32,100  Level FlightAware
06:32PM 30.3430 -81.7400 340° North 453 521 32,100  Level FlightAware
06:33PM 30.4100 -81.7680 340° North 453 521 32,100  Level FlightAware
06:34PM 30.4770 -81.7970 340° North 453 521 32,100  Level FlightAware
06:34PM 30.5440 -81.8250 340° North 453 521 32,100  Level FlightAware
06:35PM 30.6110 -81.8530 340° North 453 521 32,100  Level FlightAware
06:36PM 30.6950 -81.8890 340° North 453 521 32,100  Level FlightAware
06:37PM 30.7620 -81.9170 340° North 453 521 32,100  Level FlightAware
06:37PM 30.8290 -81.9450 340° North 453 521 32,100  Level FlightAware
06:38PM 30.8960 -81.9740 340° North 453 521 32,100  Level FlightAware
06:39PM 30.9630 -82.0020 340° North 453 521 32,100 -960 Level FlightAware
06:43PM 31.7460 -81.2740 38° Northeast 460 529 27,000 -960 Descending FlightAware
06:44PM 31.8140 -81.2070 40° Northeast 461 531 27,000  Level FlightAware
06:45PM 31.8980 -81.1140 43° Northeast 467 537 27,000  Level FlightAware
06:45PM 31.9570 -81.0510 42° Northeast 467 537 27,000  Level FlightAware
06:46PM 32.0360 -80.9670 42° Northeast 469 540 27,000  Level FlightAware
06:47PM 32.1170 -80.8800 42° Northeast 469 540 27,000  Level FlightAware
06:48PM 32.1940 -80.7980 42° Northeast 470 541 27,000  Level FlightAware
06:49PM 32.2490 -80.7400 42° Northeast 470 541 27,000  Level FlightAware
06:49PM 32.3040 -80.6810 42° Northeast 470 541 27,000  Level FlightAware
06:50PM 32.3720 -80.6080 42° Northeast 470 541 27,000  Level FlightAware
06:51PM 32.4270 -80.5490 42° Northeast 470 541 27,000  Level FlightAware
06:51PM 32.4820 -80.4910 42° Northeast 470 541 27,000  Level FlightAware
06:52PM 32.6130 -80.3450 43° Northeast 464 534 27,000  Level FlightAware
06:53PM 32.6840 -80.2680 42° Northeast 465 535 27,000  Level FlightAware
06:54PM 32.7430 -80.2040 42° Northeast 466 536 27,000  Level FlightAware
06:54PM 32.8020 -80.1400 42° Northeast 467 537 27,000  Level FlightAware
06:55PM 32.8160 -80.1250 42° Northeast 467 537 27,000  Level FlightAware
06:56PM 32.9940 -79.9410 41° Northeast 466 536 27,000  Level FlightAware
06:57PM 32.9950 -79.9410 360° North 468 539 27,000  Level FlightAware
06:58PM 33.1330 -79.8070 39° Northeast 468 539 27,000  Level FlightAware
06:58PM 33.2150 -79.7270 39° Northeast 469 540 27,000  Level FlightAware
06:59PM 33.2820 -79.6620 39° Northeast 468 539 27,000  Level FlightAware
07:00PM 33.3370 -79.6080 39° Northeast 469 540 27,000  Level FlightAware
07:01PM 33.4360 -79.5120 39° Northeast 469 540 27,000  Level FlightAware
07:01PM 33.4930 -79.4560 39° Northeast 469 540 27,000  Level FlightAware
07:02PM 33.5510 -79.4010 38° Northeast 469 540 27,000  Level FlightAware
07:03PM 33.6220 -79.3310 39° Northeast 469 540 27,000  Level FlightAware
07:03PM 33.6800 -79.2750 39° Northeast 469 540 27,000  Level FlightAware
07:04PM 33.7370 -79.2200 39° Northeast 469 540 27,000  Level FlightAware
07:04PM 33.8139 -79.1406 39° Northeast 458 527 27,000  Level Jacksonville Center
07:05PM 33.9133 -79.0414 40° Northeast 458 527 27,000  Level Jacksonville Center
07:07PM 34.0894 -78.8717 39° Northeast 471 542 27,000  Level Washington Center
07:08PM 34.1881 -78.7678 41° Northeast 471 542 27,000  Level Washington Center
07:09PM 34.2972 -78.6614 39° Northeast 461 531 27,000  Level Washington Center
07:10PM 34.4000 -78.5619 39° Northeast 461 531 27,000  Level Washington Center
07:11PM 34.4983 -78.4597 41° Northeast 466 536 27,000  Level Washington Center
07:12PM 34.6050 -78.3675 35° Northeast 466 536 27,000  Level Washington Center
07:13PM 34.7133 -78.2803 33° Northeast 466 536 27,000  Level Washington Center
07:14PM 34.8006 -78.2100 33° Northeast 466 536 27,000  Level Washington Center
07:15PM 34.9153 -78.1122 35° Northeast 461 531 27,000  Level Washington Center
07:16PM 35.0233 -78.0244 34° Northeast 461 531 27,000  Level Washington Center
07:17PM 35.1336 -77.9386 32° Northeast 466 536 27,000  Level Washington Center
07:18PM 35.2417 -77.8503 34° Northeast 471 542 27,000  Level Washington Center
07:19PM 35.3497 -77.7617 34° Northeast 471 542 27,000  Level Washington Center
07:20PM 35.4578 -77.6753 33° Northeast 471 542 27,000  Level Washington Center
07:21PM 35.5700 -77.5839 34° Northeast 476 548 27,000  Level Washington Center
07:22PM 35.6797 -77.4944 34° Northeast 471 542 27,000  Level Washington Center
07:23PM 35.7878 -77.4050 34° Northeast 471 542 27,000  Level Washington Center
07:24PM 35.8975 -77.3150 34° Northeast 471 542 27,000  Level Washington Center
07:25PM 36.0072 -77.2250 34° Northeast 471 542 27,000  Level Washington Center
07:26PM 36.1189 -77.1347 33° Northeast 471 542 27,000  Level Washington Center
07:27PM 36.2244 -77.0417 35° Northeast 471 542 27,000  Level Washington Center
07:33PM 36.8970 -76.4730 35° Northeast 484 557 27,000  Level FlightAware
07:34PM 36.9870 -76.3970 34° Northeast 485 558 27,000  Level FlightAware
07:35PM 37.0710 -76.3250 34° Northeast 485 558 27,000  Level FlightAware
07:35PM 37.1300 -76.2740 35° Northeast 486 559 27,000  Level FlightAware
07:36PM 37.2490 -76.1710 35° Northeast 487 560 27,000  Level FlightAware
07:37PM 37.3150 -76.1140 34° Northeast 487 560 27,000  Level FlightAware
07:38PM 37.4200 -76.0230 35° Northeast 487 560 27,000  Level FlightAware
07:38PM 37.5029 -75.9508 35° Northeast 489 563 27,000  Level FlightAware ADS-B
07:39PM 37.5680 -75.8939 35° Northeast 488 562 27,000 -360 Level FlightAware ADS-B
07:40PM 37.6677 -75.8066 35° Northeast 495 570 26,500 -720 Descending FlightAware ADS-B
07:40PM 37.7269 -75.7547 35° Northeast 498 573 26,000 -960 Descending FlightAware ADS-B
07:41PM 37.7874 -75.7017 35° Northeast 493 567 25,500 -1,020 Descending FlightAware ADS-B
07:42PM 37.8434 -75.6523 35° Northeast 487 560 25,000 -1,080 Descending FlightAware ADS-B
07:42PM 37.9114 -75.5922 35° Northeast 482 555 24,300 -1,080 Descending FlightAware ADS-B
07:43PM 37.9664 -75.5439 35° Northeast 475 547 23,800 -1,080 Descending FlightAware ADS-B
07:43PM 38.0269 -75.4903 35° Northeast 470 541 23,200 -960 Descending FlightAware ADS-B
07:44PM 38.1590 -75.3990 29° Northeast 449 517 22,100 -960 Descending FlightAware
07:45PM 38.2420 -75.3470 26° Northeast 447 514 21,300 -1,140 Descending FlightAware
07:45PM 38.2658 -75.3317 27° Northeast 460 529 21,100 -1,080 Descending FlightAware ADS-B
07:46PM 38.3160 -75.3000 26° Northeast 445 512 20,600 -1,020 Descending FlightAware
07:46PM 38.3448 -75.2818 26° Northeast 445 512 20,400 -1,200 Descending FlightAware ADS-B
07:47PM 38.4013 -75.2462 26° Northeast 443 510 19,800 -1,560 Descending FlightAware ADS-B
07:47PM 38.4607 -75.2084 26° Northeast 436 502 18,800 -2,100 Descending FlightAware ADS-B
07:48PM 38.5150 -75.1738 26° Northeast 433 498 17,600 -2,160 Descending FlightAware ADS-B
07:48PM 38.5710 -75.1376 27° Northeast 425 489 16,600 -1,980 Descending FlightAware ADS-B
07:49PM 38.6239 -75.1044 26° Northeast 418 481 15,600 -1,740 Descending FlightAware ADS-B
07:49PM 38.6524 -75.0917 19° North 400 460 15,300 -540 Descending FlightAware ADS-B
07:49PM 38.7058 -75.0808 North 384 442 15,200 -120 Descending FlightAware ADS-B
07:50PM 38.7590 -75.0737 North 381 438 15,200 -300 Level FlightAware ADS-B
07:50PM 38.8156 -75.0657 North 385 443 14,900 -840 Descending FlightAware ADS-B
07:51PM 38.8763 -75.0576 North 385 443 14,300 -1,200 Descending FlightAware ADS-B
07:52PM 38.9324 -75.0499 North 382 440 13,600 -1,080 Descending FlightAware ADS-B
07:52PM 38.9879 -75.0423 North 379 436 13,200 -420 Descending FlightAware ADS-B
07:53PM 39.0401 -75.0353 North 375 432 13,200  Level FlightAware ADS-B
07:53PM 39.0933 -75.0283 North 372 428 13,200  Level FlightAware ADS-B
07:54PM 39.1468 -75.0209 North 376 433 13,200 -300 Level FlightAware ADS-B
07:54PM 39.2014 -75.0134 North 380 437 12,900 -1,560 Descending FlightAware ADS-B
07:55PM 39.2569 -75.0056 North 379 436 11,600 -1,920 Descending FlightAware ADS-B
07:55PM 39.3200 -74.9968 North 351 404 10,700 -1,380 Descending FlightAware ADS-B
07:56PM 39.3665 -74.9906 North 326 375 10,100 -1,320 Descending FlightAware ADS-B
07:56PM 39.3901 -74.9877 North 320 368 9,700 -1,440 Descending FlightAware ADS-B
07:56PM 39.4107 -74.9859 North 305 351 9,400 -1,020 Descending FlightAware ADS-B
07:56PM 39.4234 -74.9886 351° North 288 331 9,300 -720 Descending FlightAware ADS-B
07:57PM 39.4312 -74.9927 338° Northwest 276 318 9,200 -600 Descending FlightAware ADS-B
07:57PM 39.4360 -74.9963 330° Northwest 268 308 9,200  Level FlightAware ADS-B
07:57PM 39.4431 -75.0032 323° Northwest 261 300 9,200  Level FlightAware ADS-B
07:57PM 39.4470 -75.0081 316° Northwest 255 293 9,200  Level FlightAware ADS-B
07:57PM 39.4508 -75.0140 310° West 250 288 9,200  Level FlightAware ADS-B
07:57PM 39.4534 -75.0189 304° West 247 284 9,200  Level FlightAware ADS-B
07:57PM 39.4569 -75.0270 299° West 242 278 9,200  Level FlightAware ADS-B
07:57PM 39.4643 -75.0462 297° West 227 261 9,200  Level FlightAware ADS-B
07:58PM 39.4712 -75.0640 297° West 216 249 9,200 -600 Level FlightAware ADS-B
07:58PM 39.4776 -75.0811 296° West 212 244 8,900 -1,500 Descending FlightAware ADS-B
07:58PM 39.4945 -75.1240 297° West 213 245 7,900 -1,620 Descending FlightAware ADS-B
07:59PM 39.5012 -75.1412 297° West 214 246 7,500 -1,440 Descending FlightAware ADS-B
07:59PM 39.5079 -75.1584 297° West 212 244 7,200 -1,380 Descending FlightAware ADS-B
07:59PM 39.5150 -75.1770 296° West 211 243 6,800 -1,560 Descending FlightAware ADS-B
07:59PM 39.5197 -75.1895 296° West 212 244 6,500 -1,320 Descending FlightAware ADS-B
08:00PM 39.5269 -75.2084 296° West 217 250 6,200 -600 Descending FlightAware ADS-B
08:00PM 39.5341 -75.2269 297° West 219 252 6,200  Level FlightAware ADS-B
08:00PM 39.5412 -75.2449 297° West 219 252 6,200  Level FlightAware ADS-B
08:00PM 39.5482 -75.2624 297° West 219 252 6,200  Level FlightAware ADS-B
08:01PM 39.5517 -75.2716 296° West 220 253 6,200  Level FlightAware ADS-B
08:01PM 39.5571 -75.2853 297° West 222 255 6,200  Level FlightAware ADS-B
08:01PM 39.5601 -75.2915 302° West 224 258 6,200  Level FlightAware ADS-B
08:01PM 39.5628 -75.2957 310° West 226 260 6,200  Level FlightAware ADS-B
08:01PM 39.5661 -75.2997 317° Northwest 228 262 6,200  Level FlightAware ADS-B
08:01PM 39.5690 -75.3027 321° Northwest 230 265 6,200  Level FlightAware ADS-B
08:01PM 39.5717 -75.3051 326° Northwest 231 266 6,200  Level FlightAware ADS-B
08:01PM 39.5767 -75.3084 333° Northwest 233 268 6,200  Level FlightAware ADS-B
08:01PM 39.5800 -75.3101 338° Northwest 236 272 6,200  Level FlightAware ADS-B
08:02PM 39.5943 -75.3164 341° North 238 274 6,200  Level FlightAware ADS-B
08:02PM 39.6114 -75.3237 342° North 237 273 6,200  Level FlightAware ADS-B
08:02PM 39.6268 -75.3304 341° North 230 265 6,200  Level FlightAware ADS-B
08:02PM 39.6417 -75.3369 341° North 222 255 6,200  Level FlightAware ADS-B
08:03PM 39.6562 -75.3433 341° North 219 252 6,200  Level FlightAware ADS-B
08:03PM 39.6709 -75.3498 341° North 217 250 6,200  Level FlightAware ADS-B
08:03PM 39.6853 -75.3562 341° North 218 251 6,200  Level FlightAware ADS-B
08:03PM 39.6933 -75.3597 341° North 218 251 6,200  Level FlightAware ADS-B
08:03PM 39.7083 -75.3663 341° North 219 252 6,200  Level FlightAware ADS-B
08:04PM 39.7175 -75.3705 341° North 217 250 6,200  Level FlightAware ADS-B
08:04PM 39.7210 -75.3728 333° Northwest 214 246 6,200  Level FlightAware ADS-B
08:04PM 39.7241 -75.3757 324° Northwest 210 242 6,200  Level FlightAware ADS-B
08:04PM 39.7276 -75.3803 315° West 206 237 6,200  Level FlightAware ADS-B
08:04PM 39.7301 -75.3855 302° West 203 234 6,200  Level FlightAware ADS-B
08:04PM 39.7315 -75.3900 292° West 202 232 6,200  Level FlightAware ADS-B
08:04PM 39.7322 -75.3936 284° West 201 231 6,200  Level FlightAware ADS-B
08:04PM 39.7327 -75.3971 281° West 200 230 6,200  Level FlightAware ADS-B
08:04PM 39.7327 -75.4010 270° West 198 228 6,200  Level FlightAware ADS-B
08:04PM 39.7324 -75.4058 265° West 197 227 6,200  Level FlightAware ADS-B
08:04PM 39.7317 -75.4097 257° West 196 226 6,200  Level FlightAware ADS-B
08:04PM 39.7308 -75.4138 254° West 194 223 6,200  Level FlightAware ADS-B
08:05PM 39.7271 -75.4307 254° West 182 209 6,200 -420 Level FlightAware ADS-B
08:05PM 39.7238 -75.4461 254° West 174 200 6,000 -1,200 Descending FlightAware ADS-B
08:05PM 39.7206 -75.4609 254° West 174 200 5,600 -1,440 Descending FlightAware ADS-B
08:05PM 39.7181 -75.4723 254° West 176 203 5,400 -960 Descending FlightAware ADS-B
08:06PM 39.7146 -75.4874 253° West 176 203 5,200 -420 Descending FlightAware ADS-B
08:06PM 39.7111 -75.5032 254° West 177 204 5,200  Level FlightAware ADS-B
08:06PM 39.7077 -75.5187 254° West 178 205 5,200  Level FlightAware ADS-B
08:06PM 39.7042 -75.5346 254° West 177 204 5,200  Level FlightAware ADS-B
08:06PM 39.7027 -75.5418 255° West 178 205 5,200  Level FlightAware ADS-B
08:07PM 39.6991 -75.5580 254° West 178 205 5,200  Level FlightAware ADS-B
08:07PM 39.6958 -75.5734 254° West 178 205 5,200  Level FlightAware ADS-B
08:07PM 39.6920 -75.5908 254° West 178 205 5,200  Level FlightAware ADS-B
08:07PM 39.6884 -75.6065 253° West 178 205 5,200  Level FlightAware ADS-B
08:08PM 39.6849 -75.6225 254° West 178 205 5,200  Level FlightAware ADS-B
08:08PM 39.6811 -75.6398 254° West 178 205 5,200  Level FlightAware ADS-B
08:08PM 39.6774 -75.6566 254° West 178 205 5,200  Level FlightAware ADS-B
08:09PM 39.6736 -75.6735 254° West 178 205 5,200  Level FlightAware ADS-B
08:09PM 39.6697 -75.6910 254° West 178 205 5,200 -240 Level FlightAware ADS-B
08:09PM 39.6684 -75.7015 261° West 177 204 5,100 -420 Descending FlightAware ADS-B
08:09PM 39.6690 -75.7067 279° West 183 211 5,100  Level FlightAware ADS-B
08:09PM 39.6699 -75.7104 288° West 186 214 5,100 -900 Level FlightAware ADS-B
08:09PM 39.6712 -75.7136 298° West 186 214 5,000 -780 Descending FlightAware ADS-B
08:09PM 39.6736 -75.7179 306° West 191 220 5,000  Level FlightAware ADS-B
08:09PM 39.6759 -75.7207 317° Northwest 192 221 5,000 -900 Level FlightAware ADS-B
08:09PM 39.6790 -75.7233 327° Northwest 194 223 4,900 -720 Descending FlightAware ADS-B
08:09PM 39.6828 -75.7255 336° Northwest 196 226 4,900  Level FlightAware ADS-B
08:10PM 39.6855 -75.7265 344° North 196 226 4,900  Level FlightAware ADS-B
08:10PM 39.6895 -75.7275 349° North 196 226 4,900 -540 Level FlightAware ADS-B
08:10PM 39.6957 -75.7289 350° North 196 226 4,800 -600 Descending FlightAware ADS-B
08:10PM 39.6992 -75.7292 356° North 198 228 4,800 -900 Level FlightAware ADS-B
08:10PM 39.7024 -75.7290 North 200 230 4,700 -900 Descending FlightAware ADS-B
08:10PM 39.7056 -75.7282 11° North 201 231 4,700  Level FlightAware ADS-B
08:10PM 39.7085 -75.7269 19° North 201 231 4,700 -720 Level FlightAware ADS-B
08:10PM 39.7130 -75.7234 31° Northeast 202 232 4,600 -600 Descending FlightAware ADS-B
08:10PM 39.7168 -75.7190 42° Northeast 202 232 4,600  Level FlightAware ADS-B
08:10PM 39.7188 -75.7163 46° Northeast 202 232 4,600 -360 Level FlightAware ADS-B
08:10PM 39.7283 -75.7025 48° Northeast 200 230 4,500 -480 Descending FlightAware ADS-B
08:11PM 39.7359 -75.6917 48° Northeast 197 227 4,400 -480 Descending FlightAware ADS-B
08:11PM 39.7450 -75.6785 48° Northeast 194 223 4,300 -420 Descending FlightAware ADS-B
08:11PM 39.7546 -75.6646 48° Northeast 191 220 4,200 -240 Descending FlightAware ADS-B
08:11PM 39.7643 -75.6505 48° Northeast 192 221 4,200  Level FlightAware ADS-B
08:12PM 39.7738 -75.6367 48° Northeast 191 220 4,200  Level FlightAware ADS-B
08:12PM 39.7832 -75.6228 49° Northeast 192 221 4,200  Level FlightAware ADS-B
08:12PM 39.7890 -75.6141 49° Northeast 191 220 4,200  Level FlightAware ADS-B
08:12PM 39.7905 -75.6113 55° Northeast 191 220 4,200  Level FlightAware ADS-B
08:12PM 39.7921 -75.6076 61° Northeast 191 220 4,200  Level FlightAware ADS-B
08:12PM 39.7942 -75.6012 67° East 191 220 4,200  Level FlightAware ADS-B
08:13PM 39.7967 -75.5917 71° East 190 219 4,200  Level FlightAware ADS-B
08:13PM 39.7997 -75.5792 73° East 191 220 4,200  Level FlightAware ADS-B
08:13PM 39.8036 -75.5607 75° East 198 228 4,200  Level FlightAware ADS-B
08:13PM 39.8072 -75.5426 75° East 200 230 4,200 -240 Level FlightAware ADS-B
08:13PM 39.8103 -75.5268 76° East 203 234 4,100 -780 Descending FlightAware ADS-B
08:14PM 39.8126 -75.5150 76° East 201 231 3,900 -960 Descending FlightAware ADS-B
08:14PM 39.8165 -75.4962 75° East 198 228 3,700 -960 Descending FlightAware ADS-B
08:14PM 39.8201 -75.4784 75° East 198 228 3,400 -1,020 Descending FlightAware ADS-B
08:14PM 39.8236 -75.4611 75° East 199 229 3,200 -1,020 Descending FlightAware ADS-B
08:15PM 39.8271 -75.4432 76° East 199 229 2,900 -1,260 Descending FlightAware ADS-B
08:15PM 39.8291 -75.4331 76° East 199 229 2,700 -1,020 Descending FlightAware ADS-B
08:15PM 39.8326 -75.4158 75° East 197 227 2,500 -1,020 Descending FlightAware ADS-B
08:15PM 39.8363 -75.3973 75° East 193 222 2,200 -1,140 Descending FlightAware ADS-B
08:16PM 39.8397 -75.3804 75° East 182 209 1,900 -960 Descending FlightAware ADS-B
08:16PM 39.8428 -75.3645 76° East 165 190 1,700 -780 Descending FlightAware ADS-B
08:16PM 39.8457 -75.3505 75° East 150 173 1,500 -840 Descending FlightAware ADS-B
08:16PM 39.8482 -75.3381 75° East 133 153 1,300 -720 Descending FlightAware ADS-B
08:17PM 39.8497 -75.3310 75° East 133 153 1,200 -780 Descending FlightAware ADS-B
08:17PM 39.8507 -75.3260 75° East 136 157 1,100 -960 Descending FlightAware ADS-B
08:17PM 39.8528 -75.3156 75° East 137 158 900 -780 Descending FlightAware ADS-B
08:17PM 39.8557 -75.3009 76° East 137 158 700 -240 Descending FlightAware ADS-B
08:18PM 39.8600 -75.2800 75° East 137 158 700  Level FlightAware